Airfield :
LOGIN :

Register | Disclaimer

   EN    FR    IT 

 










Legend :    VFR   Marginal VFR   IFR   Intensive IFR   Very Intensive IFR
Visi :
Ceiling :
>= 8 km
>= 3000ft
5 to 8 km
1000 to 3000 ft
1500m to 5 km
500 to 1000 ft
800 to 1500m
200 to 500 ft
< 800m
< 200 ft
Symbols :   Thunderstorms  Fog  Heavy snow  Heavy precipitations  Wind > 20 kt
SIGMETs :     Misc.  Thunderstorms  Icing  Turbulence  Mountain Waves  Volcanic Ashes







- Airport Elevation : 755 ft
- IATA code : DRS


EDDC - Dresden Klotzsche

CURRENT METAR :
  • 180650Z 16004KT 130V200 CAVOK 11/11 Q1016 NOSIG

EXPIRED METARs :
  • 180620Z 17003KT 140V220 CAVOK 10/10 Q1016 NOSIG
  • 180550Z 15006KT CAVOK 10/09 Q1016 NOSIG
  • 180520Z 17005KT 9000 NSC 10/09 Q1016 NOSIG
  • 180450Z 17009KT CAVOK 10/09 Q1016 NOSIG
  • 180420Z 17004KT 150V210 CAVOK 10/09 Q1017 NOSIG

TAF TAF EDDC
Valid from the 18 at 06:00 until the 19 at 06:00 UTC


180500Z 1806/1906 16006KT CAVOK
BECMG 1822/1901 4000 BR
PROB40
TEMPO 1902/1906 0300 FG
No reported NOTAMs for that airfield.



MET'MAP, your aeronautical weather chart ! - Copyright ORBIFLY December 2007 - Disclaimer

ORBIFLY MET'MAP TEAM :

Programming & Development : Alexandra Zaïnal
Concept & Development : Baudouin d'Aumeries
Co-Development & Prog : Marc-Olivier Méhu
Technical & hardware support : Manuel Goepfert

Contact : metmap@orbifly.com




SOURCES & CREDITS :

   NOAA